sensor_id;sensor_type;location;lat;lon;timestamp;pressure;altitude;pressure_sealevel;temperature;humidity
47670;BME280;33408;52.062;11.722;2023-07-09T00:00:53;101565.16;;;20.83;78.24
47670;BME280;33408;52.062;11.722;2023-07-09T00:03:20;101556.66;;;20.95;77.11
47670;BME280;33408;52.062;11.722;2023-07-09T00:05:48;101558.34;;;20.96;77.65
47670;BME280;33408;52.062;11.722;2023-07-09T00:08:24;101562.91;;;20.92;78.20
47670;BME280;33408;52.062;11.722;2023-07-09T00:10:51;101565.03;;;20.67;81.89
47670;BME280;33408;52.062;11.722;2023-07-09T00:13:18;101571.88;;;19.93;87.85
47670;BME280;33408;52.062;11.722;2023-07-09T00:15:44;101566.03;;;19.66;91.68
47670;BME280;33408;52.062;11.722;2023-07-09T00:18:12;101561.88;;;19.81;92.01
47670;BME280;33408;52.062;11.722;2023-07-09T00:20:39;101557.28;;;19.86;91.11
47670;BME280;33408;52.062;11.722;2023-07-09T00:23:06;101558.50;;;19.98;90.69
47670;BME280;33408;52.062;11.722;2023-07-09T00:25:34;101558.88;;;19.90;91.21
47670;BME280;33408;52.062;11.722;2023-07-09T00:28:01;101564.25;;;19.87;92.36
47670;BME280;33408;52.062;11.722;2023-07-09T00:30:28;101562.94;;;19.77;93.78
47670;BME280;33408;52.062;11.722;2023-07-09T00:32:55;101559.63;;;19.72;93.90
47670;BME280;33408;52.062;11.722;2023-07-09T00:35:23;101559.63;;;19.72;94.56
47670;BME280;33408;52.062;11.722;2023-07-09T00:37:50;101561.75;;;19.63;94.52
47670;BME280;33408;52.062;11.722;2023-07-09T00:40:19;101559.50;;;19.75;94.20
47670;BME280;33408;52.062;11.722;2023-07-09T00:42:47;101570.94;;;19.74;94.66
47670;BME280;33408;52.062;11.722;2023-07-09T00:45:20;101566.59;;;19.73;94.48
47670;BME280;33408;52.062;11.722;2023-07-09T00:47:47;101557.44;;;19.61;93.93
47670;BME280;33408;52.062;11.722;2023-07-09T00:50:24;101566.19;;;19.41;94.76
47670;BME280;33408;52.062;11.722;2023-07-09T00:52:55;101565.22;;;19.43;95.23
47670;BME280;33408;52.062;11.722;2023-07-09T00:55:24;101562.38;;;19.48;96.68
47670;BME280;33408;52.062;11.722;2023-07-09T00:57:55;101567.50;;;19.51;97.32
47670;BME280;33408;52.062;11.722;2023-07-09T01:00:28;101559.84;;;19.46;97.93
47670;BME280;33408;52.062;11.722;2023-07-09T01:03:02;101562.38;;;19.48;98.07
47670;BME280;33408;52.062;11.722;2023-07-09T01:05:32;101563.38;;;19.25;98.40
47670;BME280;33408;52.062;11.722;2023-07-09T01:07:59;101574.31;;;19.14;98.17
47670;BME280;33408;52.062;11.722;2023-07-09T01:10:25;101578.19;;;19.05;100.00
47670;BME280;33408;52.062;11.722;2023-07-09T01:12:52;101575.06;;;18.95;100.00
47670;BME280;33408;52.062;11.722;2023-07-09T01:15:19;101579.31;;;18.98;98.29
47670;BME280;33408;52.062;11.722;2023-07-09T01:17:45;101573.09;;;19.01;98.25
47670;BME280;33408;52.062;11.722;2023-07-09T01:20:17;101568.31;;;19.10;98.88
47670;BME280;33408;52.062;11.722;2023-07-09T01:22:49;101575.44;;;18.86;100.00
47670;BME280;33408;52.062;11.722;2023-07-09T01:25:20;101579.53;;;18.93;100.00
47670;BME280;33408;52.062;11.722;2023-07-09T01:27:47;101577.28;;;18.83;100.00
47670;BME280;33408;52.062;11.722;2023-07-09T01:30:17;101577.28;;;18.83;100.00
47670;BME280;33408;52.062;11.722;2023-07-09T01:32:48;101575.06;;;18.95;100.00
47670;BME280;33408;52.062;11.722;2023-07-09T01:35:17;101570.59;;;18.98;100.00
47670;BME280;33408;52.062;11.722;2023-07-09T01:37:44;101572.47;;;18.72;100.00
47670;BME280;33408;52.062;11.722;2023-07-09T01:40:19;101574.91;;;18.76;100.00
47670;BME280;33408;52.062;11.722;2023-07-09T01:42:46;101575.59;;;18.59;100.00
47670;BME280;33408;52.062;11.722;2023-07-09T01:45:13;101572.81;;;18.86;100.00
47670;BME280;33408;52.062;11.722;2023-07-09T01:47:40;101568.97;;;18.71;100.00
47670;BME280;33408;52.062;11.722;2023-07-09T01:50:08;101568.31;;;18.66;100.00
47670;BME280;33408;52.062;11.722;2023-07-09T01:52:35;101568.38;;;18.65;100.00
47670;BME280;33408;52.062;11.722;2023-07-09T01:55:03;101563.47;;;18.55;100.00
47670;BME280;33408;52.062;11.722;2023-07-09T01:57:31;101565.38;;;18.28;100.00
47670;BME280;33408;52.062;11.722;2023-07-09T02:00:01;101570.66;;;18.03;100.00
47670;BME280;33408;52.062;11.722;2023-07-09T02:02:29;101561.25;;;17.72;100.00
47670;BME280;33408;52.062;11.722;2023-07-09T02:04:57;101566.19;;;18.07;100.00
47670;BME280;33408;52.062;11.722;2023-07-09T02:07:24;101573.69;;;18.16;100.00
47670;BME280;33408;52.062;11.722;2023-07-09T02:09:51;101566.06;;;17.84;100.00
47670;BME280;33408;52.062;11.722;2023-07-09T02:12:18;101569.31;;;17.41;100.00
47670;BME280;33408;52.062;11.722;2023-07-09T02:14:46;101561.34;;;17.69;100.00
47670;BME280;33408;52.062;11.722;2023-07-09T02:17:14;101567.31;;;17.74;100.00
47670;BME280;33408;52.062;11.722;2023-07-09T02:19:41;101568.81;;;17.55;100.00
47670;BME280;33408;52.062;11.722;2023-07-09T02:22:08;101565.78;;;17.67;100.00
47670;BME280;33408;52.062;11.722;2023-07-09T02:24:35;101555.31;;;17.67;100.00
47670;BME280;33408;52.062;11.722;2023-07-09T02:27:05;101556.81;;;17.74;100.00
47670;BME280;33408;52.062;11.722;2023-07-09T02:29:32;101560.13;;;17.79;100.00
47670;BME280;33408;52.062;11.722;2023-07-09T02:32:01;101560.91;;;17.81;100.00
47670;BME280;33408;52.062;11.722;2023-07-09T02:34:29;101565.03;;;17.38;100.00
47670;BME280;33408;52.062;11.722;2023-07-09T02:36:58;101562.97;;;17.73;100.00
47670;BME280;33408;52.062;11.722;2023-07-09T02:39:25;101555.09;;;17.73;100.00
47670;BME280;33408;52.062;11.722;2023-07-09T02:41:51;101564.25;;;17.61;100.00
47670;BME280;33408;52.062;11.722;2023-07-09T02:44:18;101569.59;;;17.83;100.00
47670;BME280;33408;52.062;11.722;2023-07-09T02:46:45;101569.97;;;17.73;100.00
47670;BME280;33408;52.062;11.722;2023-07-09T02:49:14;101566.38;;;17.75;100.00
47670;BME280;33408;52.062;11.722;2023-07-09T02:51:41;101569.31;;;17.41;100.00
47670;BME280;33408;52.062;11.722;2023-07-09T02:54:07;101566.84;;;17.36;100.00
47670;BME280;33408;52.062;11.722;2023-07-09T02:56:34;101569.75;;;17.54;100.00
47670;BME280;33408;52.062;11.722;2023-07-09T02:59:01;101564.31;;;17.60;100.00
47670;BME280;33408;52.062;11.722;2023-07-09T03:01:27;101563.81;;;17.48;100.00
47670;BME280;33408;52.062;11.722;2023-07-09T03:03:54;101573.59;;;17.17;100.00
47670;BME280;33408;52.062;11.722;2023-07-09T03:06:23;101572.34;;;17.02;100.00
47670;BME280;33408;52.062;11.722;2023-07-09T03:08:51;101568.28;;;17.20;100.00
47670;BME280;33408;52.062;11.722;2023-07-09T03:11:19;101565.94;;;17.37;100.00
47670;BME280;33408;52.062;11.722;2023-07-09T03:13:47;101568.69;;;17.59;100.00
47670;BME280;33408;52.062;11.722;2023-07-09T03:16:14;101566.31;;;17.52;100.00
47670;BME280;33408;52.062;11.722;2023-07-09T03:18:41;101568.38;;;17.42;100.00
47670;BME280;33408;52.062;11.722;2023-07-09T03:21:08;101573.59;;;17.43;100.00
47670;BME280;33408;52.062;11.722;2023-07-09T03:23:36;101576.47;;;17.36;100.00
47670;BME280;33408;52.062;11.722;2023-07-09T03:26:03;101581.38;;;17.20;100.00
47670;BME280;33408;52.062;11.722;2023-07-09T03:28:30;101580.84;;;17.35;100.00
47670;BME280;33408;52.062;11.722;2023-07-09T03:30:57;101578.44;;;17.02;100.00
47670;BME280;33408;52.062;11.722;2023-07-09T03:33:24;101575.31;;;17.18;100.00
47670;BME280;33408;52.062;11.722;2023-07-09T03:35:51;101575.75;;;17.30;100.00
47670;BME280;33408;52.062;11.722;2023-07-09T03:38:20;101575.97;;;17.24;100.00
47670;BME280;33408;52.062;11.722;2023-07-09T03:40:50;101578.06;;;17.40;100.00
47670;BME280;33408;52.062;11.722;2023-07-09T03:43:18;101585.63;;;17.49;100.00
47670;BME280;33408;52.062;11.722;2023-07-09T03:45:45;101580.84;;;17.62;100.00
47670;BME280;33408;52.062;11.722;2023-07-09T03:48:13;101582.13;;;17.75;100.00
47670;BME280;33408;52.062;11.722;2023-07-09T03:50:41;101587.38;;;18.71;100.00
47670;BME280;33408;52.062;11.722;2023-07-09T03:53:08;101582.13;;;19.16;100.00
47670;BME280;33408;52.062;11.722;2023-07-09T03:55:35;101581.00;;;19.43;100.00
47670;BME280;33408;52.062;11.722;2023-07-09T03:58:04;101582.59;;;19.89;95.77
47670;BME280;33408;52.062;11.722;2023-07-09T04:00:31;101582.66;;;20.46;91.63
47670;BME280;33408;52.062;11.722;2023-07-09T04:02:58;101583.72;;;20.80;86.85
47670;BME280;33408;52.062;11.722;2023-07-09T04:05:26;101579.25;;;20.44;85.67
47670;BME280;33408;52.062;11.722;2023-07-09T04:07:54;101574.66;;;21.22;84.14
47670;BME280;33408;52.062;11.722;2023-07-09T04:10:21;101578.31;;;21.19;84.98
47670;BME280;33408;52.062;11.722;2023-07-09T04:12:48;101574.53;;;21.77;80.15
47670;BME280;33408;52.062;11.722;2023-07-09T04:15:16;101580.22;;;22.52;76.52
47670;BME280;33408;52.062;11.722;2023-07-09T04:17:42;101577.88;;;22.94;72.80
47670;BME280;33408;52.062;11.722;2023-07-09T04:20:09;101581.16;;;22.83;72.62
47670;BME280;33408;52.062;11.722;2023-07-09T04:22:36;101576.59;;;23.01;69.68
47670;BME280;33408;52.062;11.722;2023-07-09T04:25:05;101581.41;;;23.55;69.14
47670;BME280;33408;52.062;11.722;2023-07-09T04:27:32;101582.28;;;24.56;65.04
47670;BME280;33408;52.062;11.722;2023-07-09T04:29:59;101584.28;;;25.35;63.11
47670;BME280;33408;52.062;11.722;2023-07-09T04:32:27;101579.16;;;25.97;59.58
47670;BME280;33408;52.062;11.722;2023-07-09T04:34:54;101579.22;;;25.96;57.92
47670;BME280;33408;52.062;11.722;2023-07-09T04:37:20;101588.00;;;26.72;55.95
47670;BME280;33408;52.062;11.722;2023-07-09T04:39:47;101583.22;;;25.50;57.23
47670;BME280;33408;52.062;11.722;2023-07-09T04:42:16;101579.22;;;26.59;56.08
47670;BME280;33408;52.062;11.722;2023-07-09T04:44:43;101588.44;;;25.52;57.76
47670;BME280;33408;52.062;11.722;2023-07-09T04:47:10;101588.69;;;23.96;62.51
47670;BME280;33408;52.062;11.722;2023-07-09T04:49:39;101586.41;;;23.90;63.29
47670;BME280;33408;52.062;11.722;2023-07-09T04:52:07;101591.88;;;23.42;66.78
47670;BME280;33408;52.062;11.722;2023-07-09T04:54:37;101602.88;;;23.20;67.22
47670;BME280;33408;52.062;11.722;2023-07-09T04:57:04;101595.19;;;23.46;68.22
47670;BME280;33408;52.062;11.722;2023-07-09T04:59:31;101597.34;;;23.84;66.37
47670;BME280;33408;52.062;11.722;2023-07-09T05:01:58;101594.06;;;24.09;64.97
47670;BME280;33408;52.062;11.722;2023-07-09T05:04:25;101602.75;;;23.38;66.66
47670;BME280;33408;52.062;11.722;2023-07-09T05:06:53;101603.50;;;24.13;65.27
47670;BME280;33408;52.062;11.722;2023-07-09T05:09:19;101594.34;;;23.90;66.19
47670;BME280;33408;52.062;11.722;2023-07-09T05:11:46;101599.97;;;23.39;67.53
47670;BME280;33408;52.062;11.722;2023-07-09T05:14:13;101597.22;;;23.71;65.34
47670;BME280;33408;52.062;11.722;2023-07-09T05:16:39;101599.81;;;23.87;66.03
47670;BME280;33408;52.062;11.722;2023-07-09T05:19:07;101602.28;;;24.05;68.75
47670;BME280;33408;52.062;11.722;2023-07-09T05:21:34;101596.66;;;23.80;68.03
47670;BME280;33408;52.062;11.722;2023-07-09T05:24:02;101601.09;;;23.65;69.94
47670;BME280;33408;52.062;11.722;2023-07-09T05:26:29;101589.56;;;24.67;68.15
47670;BME280;33408;52.062;11.722;2023-07-09T05:28:55;101594.13;;;24.92;65.74
47670;BME280;33408;52.062;11.722;2023-07-09T05:31:23;101605.22;;;25.39;65.13
47670;BME280;33408;52.062;11.722;2023-07-09T05:33:49;101600.34;;;25.59;63.43
47670;BME280;33408;52.062;11.722;2023-07-09T05:36:16;101598.16;;;26.04;60.20
47670;BME280;33408;52.062;11.722;2023-07-09T05:38:44;101594.63;;;25.65;59.05
47670;BME280;33408;52.062;11.722;2023-07-09T05:41:13;101599.59;;;25.44;58.65
47670;BME280;33408;52.062;11.722;2023-07-09T05:43:42;101606.84;;;25.80;56.47
47670;BME280;33408;52.062;11.722;2023-07-09T05:46:08;101601.09;;;25.74;56.88
47670;BME280;33408;52.062;11.722;2023-07-09T05:48:35;101608.84;;;26.28;56.22
47670;BME280;33408;52.062;11.722;2023-07-09T05:51:02;101612.63;;;26.87;53.96
47670;BME280;33408;52.062;11.722;2023-07-09T05:53:28;101614.22;;;26.89;53.50
47670;BME280;33408;52.062;11.722;2023-07-09T05:55:57;101621.84;;;27.18;54.58
47670;BME280;33408;52.062;11.722;2023-07-09T05:58:25;101611.81;;;27.46;53.20
47670;BME280;33408;52.062;11.722;2023-07-09T06:00:52;101602.66;;;27.73;52.79
47670;BME280;33408;52.062;11.722;2023-07-09T06:03:22;101614.88;;;27.28;53.33
47670;BME280;33408;52.062;11.722;2023-07-09T06:05:49;101608.66;;;28.10;52.05
47670;BME280;33408;52.062;11.722;2023-07-09T06:08:17;101603.84;;;27.57;52.40
47670;BME280;33408;52.062;11.722;2023-07-09T06:10:51;101606.69;;;28.01;51.93
47670;BME280;33408;52.062;11.722;2023-07-09T06:13:17;101610.22;;;27.43;52.11
47670;BME280;33408;52.062;11.722;2023-07-09T06:15:47;101614.00;;;27.17;52.14
47670;BME280;33408;52.062;11.722;2023-07-09T06:18:14;101613.47;;;27.36;52.31
47670;BME280;33408;52.062;11.722;2023-07-09T06:20:40;101604.91;;;26.34;55.51
47670;BME280;33408;52.062;11.722;2023-07-09T06:23:07;101614.72;;;26.57;56.01
47670;BME280;33408;52.062;11.722;2023-07-09T06:25:33;101604.53;;;26.01;54.50
47670;BME280;33408;52.062;11.722;2023-07-09T06:28:00;101614.06;;;26.30;55.02
47670;BME280;33408;52.062;11.722;2023-07-09T06:30:27;101611.28;;;26.81;53.70
47670;BME280;33408;52.062;11.722;2023-07-09T06:32:55;101598.78;;;26.08;53.93
47670;BME280;33408;52.062;11.722;2023-07-09T06:35:21;101608.84;;;25.90;55.96
47670;BME280;33408;52.062;11.722;2023-07-09T06:37:48;101607.69;;;26.32;55.18
47670;BME280;33408;52.062;11.722;2023-07-09T06:40:15;101611.38;;;26.43;56.29
47670;BME280;33408;52.062;11.722;2023-07-09T06:42:42;101617.09;;;26.86;54.96
47670;BME280;33408;52.062;11.722;2023-07-09T06:45:09;101620.53;;;26.75;54.93
47670;BME280;33408;52.062;11.722;2023-07-09T06:47:35;101618.28;;;27.31;55.17
47670;BME280;33408;52.062;11.722;2023-07-09T06:50:05;101624.59;;;27.05;54.12
47670;BME280;33408;52.062;11.722;2023-07-09T06:52:31;101619.69;;;26.38;54.26
47670;BME280;33408;52.062;11.722;2023-07-09T06:54:58;101608.25;;;26.12;55.11
47670;BME280;33408;52.062;11.722;2023-07-09T06:57:25;101623.22;;;26.63;54.55
47670;BME280;33408;52.062;11.722;2023-07-09T06:59:51;101618.06;;;26.35;54.58
47670;BME280;33408;52.062;11.722;2023-07-09T07:02:18;101617.69;;;26.03;55.12
47670;BME280;33408;52.062;11.722;2023-07-09T07:04:44;101618.84;;;26.37;55.81
47670;BME280;33408;52.062;11.722;2023-07-09T07:07:12;101613.41;;;26.39;56.01
47670;BME280;33408;52.062;11.722;2023-07-09T07:09:39;101613.28;;;26.90;55.91
47670;BME280;33408;52.062;11.722;2023-07-09T07:12:06;101616.81;;;26.78;55.50
47670;BME280;33408;52.062;11.722;2023-07-09T07:14:33;101620.38;;;26.66;55.53
47670;BME280;33408;52.062;11.722;2023-07-09T07:16:59;101610.59;;;27.15;54.59
47670;BME280;33408;52.062;11.722;2023-07-09T07:19:26;101610.66;;;27.02;54.40
47670;BME280;33408;52.062;11.722;2023-07-09T07:21:53;101610.19;;;27.08;54.95
47670;BME280;33408;52.062;11.722;2023-07-09T07:24:21;101608.81;;;27.26;54.75
47670;BME280;33408;52.062;11.722;2023-07-09T07:26:48;101608.00;;;27.02;53.96
47670;BME280;33408;52.062;11.722;2023-07-09T07:29:14;101601.25;;;27.09;54.10
47670;BME280;33408;52.062;11.722;2023-07-09T07:31:41;101603.34;;;26.92;54.54
47670;BME280;33408;52.062;11.722;2023-07-09T07:34:07;101593.66;;;27.51;54.19
47670;BME280;33408;52.062;11.722;2023-07-09T07:36:34;101600.91;;;27.14;54.16
47670;BME280;33408;52.062;11.722;2023-07-09T07:39:01;101589.56;;;27.47;54.59
47670;BME280;33408;52.062;11.722;2023-07-09T07:41:29;101593.47;;;27.88;53.03
47670;BME280;33408;52.062;11.722;2023-07-09T07:43:55;101600.44;;;27.44;53.97
47670;BME280;33408;52.062;11.722;2023-07-09T07:46:22;101603.38;;;27.28;54.12
47670;BME280;33408;52.062;11.722;2023-07-09T07:48:48;101607.44;;;28.26;52.37
47670;BME280;33408;52.062;11.722;2023-07-09T07:51:15;101607.97;;;28.74;51.17
47670;BME280;33408;52.062;11.722;2023-07-09T07:53:42;101601.97;;;28.38;52.50
47670;BME280;33408;52.062;11.722;2023-07-09T07:56:08;101608.97;;;27.83;54.28
47670;BME280;33408;52.062;11.722;2023-07-09T07:58:36;101609.50;;;27.99;54.04
47670;BME280;33408;52.062;11.722;2023-07-09T08:01:03;101600.06;;;28.07;54.36
47670;BME280;33408;52.062;11.722;2023-07-09T08:03:29;101597.59;;;28.49;51.81
47670;BME280;33408;52.062;11.722;2023-07-09T08:05:56;101598.44;;;28.61;50.96
47670;BME280;33408;52.062;11.722;2023-07-09T08:08:23;101593.69;;;28.76;50.61
47670;BME280;33408;52.062;11.722;2023-07-09T08:10:50;101590.19;;;28.96;49.56
47670;BME280;33408;52.062;11.722;2023-07-09T08:13:16;101598.78;;;29.32;50.81
47670;BME280;33408;52.062;11.722;2023-07-09T08:15:45;101596.09;;;29.11;51.19
47670;BME280;33408;52.062;11.722;2023-07-09T08:18:12;101588.13;;;29.00;50.70
47670;BME280;33408;52.062;11.722;2023-07-09T08:20:43;101597.81;;;29.01;51.33
47670;BME280;33408;52.062;11.722;2023-07-09T08:23:09;101594.28;;;29.33;50.40
47670;BME280;33408;52.062;11.722;2023-07-09T08:25:36;101589.28;;;29.39;50.43
47670;BME280;33408;52.062;11.722;2023-07-09T08:28:03;101592.06;;;28.84;50.97
47670;BME280;33408;52.062;11.722;2023-07-09T08:30:32;101589.34;;;29.28;50.09
47670;BME280;33408;52.062;11.722;2023-07-09T08:33:00;101586.38;;;29.10;50.77
47670;BME280;33408;52.062;11.722;2023-07-09T08:35:26;101581.31;;;29.49;49.70
47670;BME280;33408;52.062;11.722;2023-07-09T08:37:53;101581.63;;;29.56;49.60
47670;BME280;33408;52.062;11.722;2023-07-09T08:40:20;101581.72;;;29.75;48.74
47670;BME280;33408;52.062;11.722;2023-07-09T08:42:49;101581.19;;;30.03;48.86
47670;BME280;33408;52.062;11.722;2023-07-09T08:45:28;101582.38;;;30.19;49.02
47670;BME280;33408;52.062;11.722;2023-07-09T08:48:03;101583.03;;;30.52;47.86
47670;BME280;33408;52.062;11.722;2023-07-09T08:50:36;101587.25;;;30.45;47.18
47670;BME280;33408;52.062;11.722;2023-07-09T08:53:04;101582.22;;;30.11;48.39
47670;BME280;33408;52.062;11.722;2023-07-09T08:55:33;101577.00;;;30.80;48.60
47670;BME280;33408;52.062;11.722;2023-07-09T08:58:10;101572.25;;;30.33;46.90
47670;BME280;33408;52.062;11.722;2023-07-09T09:00:43;101573.22;;;30.92;45.57
47670;BME280;33408;52.062;11.722;2023-07-09T09:03:15;101570.22;;;30.46;45.92
47670;BME280;33408;52.062;11.722;2023-07-09T09:05:43;101575.88;;;31.21;45.19
47670;BME280;33408;52.062;11.722;2023-07-09T09:08:25;101571.09;;;31.05;45.33
47670;BME280;33408;52.062;11.722;2023-07-09T09:10:59;101568.13;;;30.89;46.23
47670;BME280;33408;52.062;11.722;2023-07-09T09:13:32;101569.22;;;31.45;45.04
47670;BME280;33408;52.062;11.722;2023-07-09T09:16:04;101575.00;;;31.60;44.80
47670;BME280;33408;52.062;11.722;2023-07-09T09:18:40;101562.09;;;31.83;43.37
47670;BME280;33408;52.062;11.722;2023-07-09T09:21:15;101572.94;;;31.24;44.43
47670;BME280;33408;52.062;11.722;2023-07-09T09:23:48;101566.56;;;31.83;41.19
47670;BME280;33408;52.062;11.722;2023-07-09T09:26:18;101567.56;;;32.19;42.56
47670;BME280;33408;52.062;11.722;2023-07-09T09:28:47;101562.13;;;32.11;42.26
47670;BME280;33408;52.062;11.722;2023-07-09T09:31:15;101564.25;;;31.50;42.27
47670;BME280;33408;52.062;11.722;2023-07-09T09:33:47;101563.03;;;31.92;42.54
47670;BME280;33408;52.062;11.722;2023-07-09T09:36:19;101564.06;;;32.09;42.04
47670;BME280;33408;52.062;11.722;2023-07-09T09:38:46;101562.41;;;32.08;40.37
47670;BME280;33408;52.062;11.722;2023-07-09T09:41:17;101560.47;;;32.46;40.60
47670;BME280;33408;52.062;11.722;2023-07-09T09:43:45;101556.19;;;32.53;40.58
47670;BME280;33408;52.062;11.722;2023-07-09T09:46:17;101559.47;;;32.29;41.15
47670;BME280;33408;52.062;11.722;2023-07-09T09:48:47;101548.56;;;32.30;39.31
47670;BME280;33408;52.062;11.722;2023-07-09T09:51:15;101555.72;;;32.40;39.93
47670;BME280;33408;52.062;11.722;2023-07-09T09:53:47;101555.84;;;32.66;39.34
47670;BME280;33408;52.062;11.722;2023-07-09T09:56:26;101556.13;;;32.63;39.52
47670;BME280;33408;52.062;11.722;2023-07-09T09:58:55;101553.03;;;32.94;38.12
47670;BME280;33408;52.062;11.722;2023-07-09T10:01:27;101548.28;;;33.05;38.07
47670;BME280;33408;52.062;11.722;2023-07-09T10:03:58;101547.47;;;32.87;38.16
47670;BME280;33408;52.062;11.722;2023-07-09T10:06:34;101558.16;;;33.23;39.08
47670;BME280;33408;52.062;11.722;2023-07-09T10:09:05;101549.69;;;32.92;38.82
47670;BME280;33408;52.062;11.722;2023-07-09T10:11:43;101542.22;;;33.03;39.95
47670;BME280;33408;52.062;11.722;2023-07-09T10:14:30;101546.63;;;33.31;38.00
47670;BME280;33408;52.062;11.722;2023-07-09T10:17:02;101547.38;;;33.41;37.14
47670;BME280;33408;52.062;11.722;2023-07-09T10:19:36;101549.94;;;33.77;37.76
47670;BME280;33408;52.062;11.722;2023-07-09T10:22:07;101543.34;;;33.45;36.46
47670;BME280;33408;52.062;11.722;2023-07-09T10:24:45;101542.09;;;33.57;35.72
47670;BME280;33408;52.062;11.722;2023-07-09T10:27:18;101540.22;;;33.84;35.71
47670;BME280;33408;52.062;11.722;2023-07-09T10:30:01;101538.44;;;34.01;35.60
47670;BME280;33408;52.062;11.722;2023-07-09T10:32:46;101543.00;;;34.09;35.57
47670;BME280;33408;52.062;11.722;2023-07-09T10:35:22;101541.03;;;33.76;35.30
47670;BME280;33408;52.062;11.722;2023-07-09T10:38:02;101537.97;;;33.71;34.09
47670;BME280;33408;52.062;11.722;2023-07-09T10:40:33;101533.72;;;34.03;34.76
47670;BME280;33408;52.062;11.722;2023-07-09T10:43:04;101536.53;;;34.28;35.86
47670;BME280;33408;52.062;11.722;2023-07-09T10:45:39;101531.50;;;34.58;33.54
47670;BME280;33408;52.062;11.722;2023-07-09T10:48:09;101529.63;;;34.50;31.77
47670;BME280;33408;52.062;11.722;2023-07-09T10:50:43;101512.69;;;34.82;32.47
47670;BME280;33408;52.062;11.722;2023-07-09T10:53:14;101524.41;;;34.24;33.34
47670;BME280;33408;52.062;11.722;2023-07-09T10:55:47;101517.38;;;34.72;32.51
47670;BME280;33408;52.062;11.722;2023-07-09T10:58:27;101513.00;;;34.79;32.32
47670;BME280;33408;52.062;11.722;2023-07-09T11:00:59;101520.41;;;34.94;33.03
47670;BME280;33408;52.062;11.722;2023-07-09T11:03:34;101508.97;;;35.00;31.89
47670;BME280;33408;52.062;11.722;2023-07-09T11:06:11;101516.50;;;35.13;31.76
47670;BME280;33408;52.062;11.722;2023-07-09T11:08:41;101517.41;;;34.80;31.83
47670;BME280;33408;52.062;11.722;2023-07-09T11:11:11;101518.53;;;34.69;31.20
47670;BME280;33408;52.062;11.722;2023-07-09T11:13:43;101516.00;;;34.68;29.88
47670;BME280;33408;52.062;11.722;2023-07-09T11:16:14;101509.31;;;34.56;30.45
47670;BME280;33408;52.062;11.722;2023-07-09T11:18:54;101520.25;;;34.87;31.01
47670;BME280;33408;52.062;11.722;2023-07-09T11:21:22;101509.63;;;34.44;30.36
47670;BME280;33408;52.062;11.722;2023-07-09T11:23:51;101506.44;;;34.90;32.29
47670;BME280;33408;52.062;11.722;2023-07-09T11:26:23;101507.25;;;35.15;31.17
47670;BME280;33408;52.062;11.722;2023-07-09T11:28:54;101501.56;;;34.85;30.83
47670;BME280;33408;52.062;11.722;2023-07-09T11:31:24;101498.13;;;35.16;30.97
47670;BME280;33408;52.062;11.722;2023-07-09T11:34:01;101499.09;;;35.48;31.08
47670;BME280;33408;52.062;11.722;2023-07-09T11:36:31;101492.94;;;35.23;30.77
47670;BME280;33408;52.062;11.722;2023-07-09T11:39:19;101495.63;;;35.06;31.90
47670;BME280;33408;52.062;11.722;2023-07-09T11:41:46;101493.66;;;35.00;32.61
47670;BME280;33408;52.062;11.722;2023-07-09T11:44:16;101487.09;;;34.78;30.81
47670;BME280;33408;52.062;11.722;2023-07-09T11:46:51;101490.41;;;35.69;30.79
47670;BME280;33408;52.062;11.722;2023-07-09T11:49:21;101479.94;;;35.83;30.55
47670;BME280;33408;52.062;11.722;2023-07-09T11:51:52;101475.91;;;35.78;30.24
47670;BME280;33408;52.062;11.722;2023-07-09T11:54:21;101474.50;;;35.91;30.86
47670;BME280;33408;52.062;11.722;2023-07-09T11:56:58;101484.19;;;35.69;31.03
47670;BME280;33408;52.062;11.722;2023-07-09T11:59:25;101471.38;;;35.06;31.25
47670;BME280;33408;52.062;11.722;2023-07-09T12:01:56;101477.28;;;35.18;31.82
47670;BME280;33408;52.062;11.722;2023-07-09T12:04:32;101474.63;;;34.44;31.70
47670;BME280;33408;52.062;11.722;2023-07-09T12:07:02;101472.47;;;35.45;30.51
47670;BME280;33408;52.062;11.722;2023-07-09T12:09:33;101469.38;;;34.92;31.90
47670;BME280;33408;52.062;11.722;2023-07-09T12:12:04;101467.53;;;35.09;30.76
47670;BME280;33408;52.062;11.722;2023-07-09T12:14:30;101462.25;;;35.72;31.29
47670;BME280;33408;52.062;11.722;2023-07-09T12:16:57;101459.34;;;35.82;30.44
47670;BME280;33408;52.062;11.722;2023-07-09T12:19:24;101459.44;;;35.65;31.01
47670;BME280;33408;52.062;11.722;2023-07-09T12:21:56;101459.97;;;35.92;30.30
47670;BME280;33408;52.062;11.722;2023-07-09T12:24:27;101456.53;;;35.75;30.22
47670;BME280;33408;52.062;11.722;2023-07-09T12:26:57;101451.25;;;35.42;31.59
47670;BME280;33408;52.062;11.722;2023-07-09T12:29:25;101448.38;;;34.87;31.49
47670;BME280;33408;52.062;11.722;2023-07-09T12:31:52;101449.13;;;35.29;31.71
47670;BME280;33408;52.062;11.722;2023-07-09T12:34:18;101443.59;;;35.06;31.45
47670;BME280;33408;52.062;11.722;2023-07-09T12:36:49;101436.84;;;35.18;32.57
47670;BME280;33408;52.062;11.722;2023-07-09T12:39:19;101437.53;;;35.60;30.58
47670;BME280;33408;52.062;11.722;2023-07-09T12:41:51;101440.53;;;35.65;30.25
47670;BME280;33408;52.062;11.722;2023-07-09T12:44:21;101435.09;;;35.82;31.17
47670;BME280;33408;52.062;11.722;2023-07-09T12:46:49;101435.06;;;35.50;31.52